Seabourn Legend — C6FR6 — position and weather

sailwx.info

Track history (hours):
 
Tides and Currents Weather Stations Pressure Air Temp Water Temp Dewpoint Dewpoint Depression Visibility Wind Speed Wind Dir Waves Ship Positions

Seabourn Legend

Operator: Cunard Seabourn

Last reported at 2017-Jan-23 13:00 UTC. Time now 2017-Jan-23 16:45 UTC.
Position N 17°54' W 062°48'.

Length 135 m; draft 5.6 m.

Type: Ship. MMSI: 311085000.

Wind from 150 at 10 knots

Barometer 1016.6 mb
Air temperature 26.0 ° C
Visibility: greater than 10.8 NM
Dewpoint 16.3 ° C
Water temperature 29.1 ° C

Date/timePositionNaut miles runAvg speedWind from/ knotsBaromVisibWave heightAir tempDewpointWater temp
2017-Jan-23 13:00N 17°54' W 062°48'10 4.1 150 / 101016.610.8 26.016.329.1
2017-Jan-23 10:32N 17°55' W 062°58'1712.7
2017-Jan-23 09:09N 17°56' W 063°17'7 9.6
2017-Jan-23 08:23N 17°57' W 063°25'8 9.2
2017-Jan-23 07:29N 17°57' W 063°33'4329.0
2017-Jan-23 06:00N 18°00' W 062°48'11617.5 130 / 91014.810.8 24.017.6
2017-Jan-22 23:23N 18°09' W 064°49'49 2.7
2017-Jan-22 05:00N 18°30' W 065°36'2014.1 360 / 81015.010.8 23.617.4
2017-Jan-22 03:33N 18°32' W 065°57'7 7.0
2017-Jan-22 02:33N 18°30' W 066°04'3 3.3
2017-Jan-22 01:31N 18°28' W 066°07'0 0.0
2017-Jan-22 00:31N 18°28' W 066°07'0 0.0
2017-Jan-21 23:31N 18°28' W 066°07'0 0.0
2017-Jan-21 22:33N 18°28' W 066°07'0 0.0
2017-Jan-21 21:33N 18°28' W 066°07'0 0.0
2017-Jan-21 20:32N 18°28' W 066°07'0 0.0
2017-Jan-21 19:32N 18°28' W 066°07'0 0.0
2017-Jan-21 18:31N 18°28' W 066°07'0 0.0
2017-Jan-21 17:28N 18°28' W 066°07'0 0.0
2017-Jan-21 16:28N 18°28' W 066°07'0 0.0
2017-Jan-21 15:33N 18°28' W 066°07'0 0.0
2017-Jan-21 14:30N 18°28' W 066°07'0 0.0
2017-Jan-21 13:32N 18°28' W 066°07'0 0.0
2017-Jan-21 12:32N 18°28' W 066°07'0 0.0
2017-Jan-21 11:31N 18°28' W 066°07'0 0.3
2017-Jan-21 10:33N 18°28' W 066°07'5 4.8
2017-Jan-21 09:33N 18°31' W 066°04'8 7.5
2017-Jan-21 08:33N 18°32' W 065°56'13 8.4
2017-Jan-21 07:00N 18°30' W 065°42'40 7.4 350 / 81014.910.8 23.013.6
2017-Jan-21 01:30N 18°34' W 064°59'7 7.4
2017-Jan-21 00:33N 18°33' W 064°52'8 7.6
2017-Jan-20 23:33N 18°33' W 064°44'8 7.7
2017-Jan-20 22:33N 18°32' W 064°36'8 7.7
2017-Jan-20 21:32N 18°32' W 064°28'4 0.4
2017-Jan-20 10:32N 18°34' W 064°25'7 6.7
2017-Jan-20 09:33N 18°40' W 064°28'7 7.0
2017-Jan-20 08:33N 18°42' W 064°35'7 6.6
2017-Jan-20 07:33N 18°42' W 064°42'7 6.8
2017-Jan-20 06:33N 18°41' W 064°49'7 6.9
2017-Jan-20 05:32N 18°34' W 064°51'7 6.9
2017-Jan-20 04:33N 18°27' W 064°52'6 5.7
2017-Jan-20 03:33N 18°25' W 064°47'2 1.7
2017-Jan-20 02:21N 18°26' W 064°45'0 0.0
2017-Jan-20 01:32N 18°26' W 064°45'0 0.0
2017-Jan-20 00:26N 18°26' W 064°45'0 0.0
2017-Jan-19 23:31N 18°26' W 064°45'0 0.0
2017-Jan-19 21:25N 18°26' W 064°45'0 0.0
2017-Jan-19 20:24N 18°26' W 064°45'0 0.0
2017-Jan-19 19:29N 18°26' W 064°45'0 0.0
2017-Jan-19 18:29N 18°26' W 064°45'0 0.0
2017-Jan-19 17:29N 18°26' W 064°45'0 0.0
2017-Jan-19 16:28N 18°26' W 064°45'0 0.0
2017-Jan-19 15:28N 18°26' W 064°45'0 0.0
2017-Jan-19 14:28N 18°26' W 064°45'0 0.0
2017-Jan-19 13:33N 18°26' W 064°45'0 0.0
2017-Jan-19 12:33N 18°26' W 064°45'0 0.3
2017-Jan-19 11:33N 18°26' W 064°45'1111.2
2017-Jan-19 10:33N 18°33' W 064°36'1211.8
2017-Jan-19 09:33N 18°34' W 064°23'1212.5
2017-Jan-19 08:33N 18°28' W 064°11'4610.6
2017-Jan-19 04:12N 18°09' W 063°27'7 9.8
2017-Jan-19 03:30N 18°06' W 063°21'1110.0
2017-Jan-19 02:25N 18°01' W 063°11'7 1.5
2017-Jan-18 21:24N 18°01' W 063°03'0 0.0
2017-Jan-18 19:30N 18°01' W 063°03'0 0.0
2017-Jan-18 16:25N 18°01' W 063°03'3 1.2
2017-Jan-18 14:00N 18°00' W 063°00'3 0.8 050 / 101018.610.8 27.515.327.8
2017-Jan-18 10:19N 18°01' W 063°03'5 5.8
2017-Jan-18 09:31N 17°56' W 063°02'5611.3
2017-Jan-18 04:33N 17°22' W 062°16'9 9.1
2017-Jan-18 03:32N 17°17' W 062°08'9 9.1
2017-Jan-18 02:34N 17°12' W 061°60'10 9.6
2017-Jan-18 01:33N 17°07' W 061°51'0 0.2
2017-Jan-18 00:30N 17°07' W 061°51'0 0.0
2017-Jan-17 23:32N 17°07' W 061°51'0 0.0
2017-Jan-17 22:32N 17°07' W 061°51'0 0.0
2017-Jan-17 21:31N 17°07' W 061°51'0 0.0
2017-Jan-17 20:31N 17°07' W 061°51'0 0.0
2017-Jan-17 19:31N 17°07' W 061°51'0 0.0
2017-Jan-17 18:33N 17°07' W 061°51'0 0.0
2017-Jan-17 17:33N 17°07' W 061°51'0 0.0
2017-Jan-17 16:32N 17°07' W 061°51'0 0.0
2017-Jan-17 15:32N 17°07' W 061°51'1 1.1
2017-Jan-17 14:33N 17°08' W 061°52'1010.4
2017-Jan-17 13:33N 17°03' W 062°02'1212.1
2017-Jan-17 12:33N 16°54' W 062°10'6 6.1
2017-Jan-17 11:31N 16°48' W 062°13'7 7.3
2017-Jan-17 10:32N 16°55' W 062°15'8 7.9
2017-Jan-17 09:33N 17°03' W 062°17'8 7.9
2017-Jan-17 08:32N 17°10' W 062°20'8 7.7
2017-Jan-17 07:32N 17°18' W 062°22'8 8.1
2017-Jan-17 06:33N 17°25' W 062°26'611.4
2017-Jan-17 06:00N 17°30' W 062°30'3 5.6 050 / 261017.310.8 25.619.1
2017-Jan-17 05:29N 17°31' W 062°33'34 1.8
2017-Jan-16 10:29N 17°55' W 062°58'10 9.3
2017-Jan-16 09:23N 17°57' W 063°09'8 9.4
2017-Jan-16 08:32N 17°58' W 063°17'9 9.2
2017-Jan-16 07:31N 17°59' W 063°27'510.3
2017-Jan-16 07:00N 17°54' W 063°24'1328.0 050 / 251014.810.8 24.519.9
2017-Jan-16 06:31N 17°60' W 063°36'5710.3
2017-Jan-16 01:00N 18°06' W 064°36'7 7.7 030 / 201017.310.8 25.020.428.6
2017-Jan-16 00:03N 18°08' W 064°43'611.3
2017-Jan-15 23:33N 18°09' W 064°49'66 3.6
2017-Jan-15 05:06N 18°31' W 065°54'5 8.8
2017-Jan-15 04:33N 18°32' W 065°60'8 8.4
2017-Jan-15 03:34N 18°29' W 066°08'1 1.3
2017-Jan-15 02:31N 18°28' W 066°07'0 0.0
2017-Jan-15 01:33N 18°28' W 066°07'0 0.0
2017-Jan-15 00:33N 18°28' W 066°07'0 0.0
2017-Jan-14 23:33N 18°28' W 066°07'0 0.0
2017-Jan-14 22:32N 18°28' W 066°07'0 0.0
2017-Jan-14 21:32N 18°28' W 066°07'0 0.0
2017-Jan-14 20:31N 18°28' W 066°07'0 0.0
2017-Jan-14 19:31N 18°28' W 066°07'0 0.0
2017-Jan-14 18:30N 18°28' W 066°07'0 0.0
2017-Jan-14 17:33N 18°28' W 066°07'0 0.0
2017-Jan-14 16:33N 18°28' W 066°07'0 0.0
2017-Jan-14 15:32N 18°28' W 066°07'0 0.0
2017-Jan-14 14:32N 18°28' W 066°07'0 0.0
2017-Jan-14 13:31N 18°28' W 066°07'0 0.0
2017-Jan-14 12:31N 18°28' W 066°07'0 0.0
2017-Jan-14 11:33N 18°28' W 066°07'0 0.0
2017-Jan-14 10:33N 18°28' W 066°07'5 4.9
2017-Jan-14 09:33N 18°32' W 066°04'32 9.0
2017-Jan-14 06:00N 18°36' W 065°30'47 7.3 040 / 241017.610.8 24.518.9
2017-Jan-13 23:33N 18°32' W 064°41'9 8.9
2017-Jan-13 22:33N 18°31' W 064°31'6 6.3
2017-Jan-13 21:32N 18°25' W 064°32'  
Track history (hours):
 
Tides and Currents Weather Stations Pressure Air Temp Water Temp Dewpoint Dewpoint Depression Visibility Wind Speed Wind Dir Waves Ship Positions

Seabourn Legend

Operator: Cunard Seabourn

Last reported at 2017-Jan-23 13:00 UTC. Time now 2017-Jan-23 16:45 UTC.
Position N 17°54' W 062°48'.

Length 135 m; draft 5.6 m.

Type: Ship. MMSI: 311085000.

Wind from 150 at 10 knots

Barometer 1016.6 mb
Air temperature 26.0 ° C
Visibility: greater than 10.8 NM
Dewpoint 16.3 ° C
Water temperature 29.1 ° C

Date/timePositionNaut miles runAvg speedWind from/ knotsBaromVisibWave heightAir tempDewpointWater temp
2017-Jan-23 13:00N 17°54' W 062°48'10 4.1 150 / 101016.610.8 26.016.329.1
2017-Jan-23 10:32N 17°55' W 062°58'1712.7
2017-Jan-23 09:09N 17°56' W 063°17'7 9.6
2017-Jan-23 08:23N 17°57' W 063°25'8 9.2
2017-Jan-23 07:29N 17°57' W 063°33'4329.0
2017-Jan-23 06:00N 18°00' W 062°48'11617.5 130 / 91014.810.8 24.017.6
2017-Jan-22 23:23N 18°09' W 064°49'49 2.7
2017-Jan-22 05:00N 18°30' W 065°36'2014.1 360 / 81015.010.8 23.617.4
2017-Jan-22 03:33N 18°32' W 065°57'7 7.0
2017-Jan-22 02:33N 18°30' W 066°04'3 3.3
2017-Jan-22 01:31N 18°28' W 066°07'0 0.0
2017-Jan-22 00:31N 18°28' W 066°07'0 0.0
2017-Jan-21 23:31N 18°28' W 066°07'0 0.0
2017-Jan-21 22:33N 18°28' W 066°07'0 0.0
2017-Jan-21 21:33N 18°28' W 066°07'0 0.0
2017-Jan-21 20:32N 18°28' W 066°07'0 0.0
2017-Jan-21 19:32N 18°28' W 066°07'0 0.0
2017-Jan-21 18:31N 18°28' W 066°07'0 0.0
2017-Jan-21 17:28N 18°28' W 066°07'0 0.0
2017-Jan-21 16:28N 18°28' W 066°07'0 0.0
2017-Jan-21 15:33N 18°28' W 066°07'0 0.0
2017-Jan-21 14:30N 18°28' W 066°07'0 0.0
2017-Jan-21 13:32N 18°28' W 066°07'0 0.0
2017-Jan-21 12:32N 18°28' W 066°07'0 0.0
2017-Jan-21 11:31N 18°28' W 066°07'0 0.3
2017-Jan-21 10:33N 18°28' W 066°07'5 4.8
2017-Jan-21 09:33N 18°31' W 066°04'8 7.5
2017-Jan-21 08:33N 18°32' W 065°56'13 8.4
2017-Jan-21 07:00N 18°30' W 065°42'40 7.4 350 / 81014.910.8 23.013.6
2017-Jan-21 01:30N 18°34' W 064°59'7 7.4
2017-Jan-21 00:33N 18°33' W 064°52'8 7.6
2017-Jan-20 23:33N 18°33' W 064°44'8 7.7
2017-Jan-20 22:33N 18°32' W 064°36'8 7.7
2017-Jan-20 21:32N 18°32' W 064°28'4 0.4
2017-Jan-20 10:32N 18°34' W 064°25'7 6.7
2017-Jan-20 09:33N 18°40' W 064°28'7 7.0
2017-Jan-20 08:33N 18°42' W 064°35'7 6.6
2017-Jan-20 07:33N 18°42' W 064°42'7 6.8
2017-Jan-20 06:33N 18°41' W 064°49'7 6.9
2017-Jan-20 05:32N 18°34' W 064°51'7 6.9
2017-Jan-20 04:33N 18°27' W 064°52'6 5.7
2017-Jan-20 03:33N 18°25' W 064°47'2 1.7
2017-Jan-20 02:21N 18°26' W 064°45'0 0.0
2017-Jan-20 01:32N 18°26' W 064°45'0 0.0
2017-Jan-20 00:26N 18°26' W 064°45'0 0.0
2017-Jan-19 23:31N 18°26' W 064°45'0 0.0
2017-Jan-19 21:25N 18°26' W 064°45'0 0.0
2017-Jan-19 20:24N 18°26' W 064°45'0 0.0
2017-Jan-19 19:29N 18°26' W 064°45'0 0.0
2017-Jan-19 18:29N 18°26' W 064°45'0 0.0
2017-Jan-19 17:29N 18°26' W 064°45'0 0.0
2017-Jan-19 16:28N 18°26' W 064°45'0 0.0
2017-Jan-19 15:28N 18°26' W 064°45'0 0.0
2017-Jan-19 14:28N 18°26' W 064°45'0 0.0
2017-Jan-19 13:33N 18°26' W 064°45'0 0.0
2017-Jan-19 12:33N 18°26' W 064°45'0 0.3
2017-Jan-19 11:33N 18°26' W 064°45'1111.2
2017-Jan-19 10:33N 18°33' W 064°36'1211.8
2017-Jan-19 09:33N 18°34' W 064°23'1212.5
2017-Jan-19 08:33N 18°28' W 064°11'4610.6
2017-Jan-19 04:12N 18°09' W 063°27'7 9.8
2017-Jan-19 03:30N 18°06' W 063°21'1110.0
2017-Jan-19 02:25N 18°01' W 063°11'7 1.5
2017-Jan-18 21:24N 18°01' W 063°03'0 0.0
2017-Jan-18 19:30N 18°01' W 063°03'0 0.0
2017-Jan-18 16:25N 18°01' W 063°03'3 1.2
2017-Jan-18 14:00N 18°00' W 063°00'3 0.8 050 / 101018.610.8 27.515.327.8
2017-Jan-18 10:19N 18°01' W 063°03'5 5.8
2017-Jan-18 09:31N 17°56' W 063°02'5611.3
2017-Jan-18 04:33N 17°22' W 062°16'9 9.1
2017-Jan-18 03:32N 17°17' W 062°08'9 9.1
2017-Jan-18 02:34N 17°12' W 061°60'10 9.6
2017-Jan-18 01:33N 17°07' W 061°51'0 0.2
2017-Jan-18 00:30N 17°07' W 061°51'0 0.0
2017-Jan-17 23:32N 17°07' W 061°51'0 0.0
2017-Jan-17 22:32N 17°07' W 061°51'0 0.0
2017-Jan-17 21:31N 17°07' W 061°51'0 0.0
2017-Jan-17 20:31N 17°07' W 061°51'0 0.0
2017-Jan-17 19:31N 17°07' W 061°51'0 0.0
2017-Jan-17 18:33N 17°07' W 061°51'0 0.0
2017-Jan-17 17:33N 17°07' W 061°51'0 0.0
2017-Jan-17 16:32N 17°07' W 061°51'0 0.0
2017-Jan-17 15:32N 17°07' W 061°51'1 1.1
2017-Jan-17 14:33N 17°08' W 061°52'1010.4
2017-Jan-17 13:33N 17°03' W 062°02'1212.1
2017-Jan-17 12:33N 16°54' W 062°10'6 6.1
2017-Jan-17 11:31N 16°48' W 062°13'7 7.3
2017-Jan-17 10:32N 16°55' W 062°15'8 7.9
2017-Jan-17 09:33N 17°03' W 062°17'8 7.9
2017-Jan-17 08:32N 17°10' W 062°20'8 7.7
2017-Jan-17 07:32N 17°18' W 062°22'8 8.1
2017-Jan-17 06:33N 17°25' W 062°26'611.4
2017-Jan-17 06:00N 17°30' W 062°30'3 5.6 050 / 261017.310.8 25.619.1
2017-Jan-17 05:29N 17°31' W 062°33'34 1.8
2017-Jan-16 10:29N 17°55' W 062°58'10 9.3
2017-Jan-16 09:23N 17°57' W 063°09'8 9.4
2017-Jan-16 08:32N 17°58' W 063°17'9 9.2
2017-Jan-16 07:31N 17°59' W 063°27'510.3
2017-Jan-16 07:00N 17°54' W 063°24'1328.0 050 / 251014.810.8 24.519.9
2017-Jan-16 06:31N 17°60' W 063°36'5710.3
2017-Jan-16 01:00N 18°06' W 064°36'7 7.7 030 / 201017.310.8 25.020.428.6
2017-Jan-16 00:03N 18°08' W 064°43'611.3
2017-Jan-15 23:33N 18°09' W 064°49'66 3.6
2017-Jan-15 05:06N 18°31' W 065°54'5 8.8
2017-Jan-15 04:33N 18°32' W 065°60'8 8.4
2017-Jan-15 03:34N 18°29' W 066°08'1 1.3
2017-Jan-15 02:31N 18°28' W 066°07'0 0.0
2017-Jan-15 01:33N 18°28' W 066°07'0 0.0
2017-Jan-15 00:33N 18°28' W 066°07'0 0.0
2017-Jan-14 23:33N 18°28' W 066°07'0 0.0
2017-Jan-14 22:32N 18°28' W 066°07'0 0.0
2017-Jan-14 21:32N 18°28' W 066°07'0 0.0
2017-Jan-14 20:31N 18°28' W 066°07'0 0.0
2017-Jan-14 19:31N 18°28' W 066°07'0 0.0
2017-Jan-14 18:30N 18°28' W 066°07'0 0.0
2017-Jan-14 17:33N 18°28' W 066°07'0 0.0
2017-Jan-14 16:33N 18°28' W 066°07'0 0.0
2017-Jan-14 15:32N 18°28' W 066°07'0 0.0
2017-Jan-14 14:32N 18°28' W 066°07'0 0.0
2017-Jan-14 13:31N 18°28' W 066°07'0 0.0
2017-Jan-14 12:31N 18°28' W 066°07'0 0.0
2017-Jan-14 11:33N 18°28' W 066°07'0 0.0
2017-Jan-14 10:33N 18°28' W 066°07'5 4.9
2017-Jan-14 09:33N 18°32' W 066°04'32 9.0
2017-Jan-14 06:00N 18°36' W 065°30'47 7.3 040 / 241017.610.8 24.518.9
2017-Jan-13 23:33N 18°32' W 064°41'9 8.9
2017-Jan-13 22:33N 18°31' W 064°31'6 6.3
2017-Jan-13 21:32N 18°25' W 064°32'  

Dump ship's entire track history